KBVI

Beaver County Airport

Beaver Falls, Pennsylvania, USA
METAR KBVI 200047Z 00000KT 10SM CLR 22/18 A2995 RMK LAST.
Observed Flight Rules
Jun-20 @ 00:47 UTC (5 hours ago) Visual Flight Rules
Visibility Clouds
10 miles
  • Clear skies
Temperatures Readings
Current 22°C / 72°F
Dewpoint 18°C / 64°F
Humidity 78%
Altimeter 29.95" Hg
Pressure 1014 hPa
Elevation 382
METAR KBVI 200047Z 00000KT 10SM CLR 22/18 A2995 RMK LAST.
Observed Flight Rules
Jun-20 @ 00:47 UTC
(5 hours ago)
VFR
Clouds
  • Clear skies
Temperature Dewpoint
22°C / 72°F 18°C / 64°F
Humidity Altimeter Pressure
78% 29.95" Hg 1014 hPa